Glasgow, MT (59230)

9:54 PM MDT on May 24, 2017 (GMT -0600)
East Glasgow | | Change Station
Active Advisory: Lake Wind Advisory Active Notice: Public Information Statement

Elev 2205 ft 48.19 °N, 106.61 °W | Updated 4 minutes ago

Clear
Clear
59.6 °F
Feels Like 59.6 °F
N
3.0
Wind Variable Wind from SW
Gusts 9.0 mph

Today
High -- | Low -- °F
--% Chance of Precip.
Yesterday
High -- | Low -- °F
Precip. -- in
Pressure 29.34 in
Visibility 7.0 miles
Clouds Clear
Dew Point 17 °F
Humidity 19%
Rainfall 0.00 in
Snow Depth Not available.
5:16 AM 8:50 PM
Waning Crescent, 1% visible
METAR KOLF 250253Z AUTO 30016KT 7SM CLR 18/M08 A2935 RMK AO2 PK WND 30029/0234 SLP933 T01781083 53021 TSNO
Pressure 29.34 in
Visibility 7.0 miles
Clouds Clear
Dew Point 17 °F
Humidity 19%
Rainfall 0.00 in
Snow Depth Not available.
5:16 AM 8:50 PM
Waning Crescent, 1% visible
METAR KOLF 250253Z AUTO 30016KT 7SM CLR 18/M08 A2935 RMK AO2 PK WND 30029/0234 SLP933 T01781083 53021 TSNO

Get Your Daily Forecast Email!

Thanks for signing up!

Be on the lookout for a verification email in your inbox.

You'll start receiving severe weather alerts in your inbox..

×

10-Day Weather Forecast

Almanac

Astronomy

May. 24, 2017 Rise Set
Actual Time
Civil Twilight
Nautical Twilight
Astronomical Twilight
Moon
Length of Visible Light
Length of Day
Tomorrow will be .
, % of the Moon is Illuminated

Today's Extremes

State Highs State Lows

Community

WunderPhotos

Category 6

Welcome to Category 6. This is the collective home for Weather Underground's featured writeups by Dr. Jeff Masters (right), Bob Henson (left), Chris Burt, and other regular contributors.

Nearby

Air Quality

  Air Quality AQ Index Pollutant
Not available.

Snow Depth

Station Depth Elevation

Earthquake Activity

City Distance Mag. Time & Date
Minimum magnitude displayed is 2.5.

Coastal Water Temperatures

Place Temperature

Stations

Nearby Weather Stations

Station Location Temp. Windchill Dew Point Humidity Wind Precip. Elev Updated Type
                   

Watches & Warnings

Lake Wind Advisory
Issued: 8:45 PM MDT May. 24, 2017 – National Weather Service

... Lake Wind Advisory remains in effect until 9 PM MDT Thursday
for Fort Peck Lake...

* winds... west 20 to 30 mph with gusts up to 40 mph.

* Timing... now through 9 PM on Thursday.

* Impacts... these winds will make open waters of the lake rough
and hazardous, and may result in high waves which may tip or
swamp smaller craft.

Precautionary/preparedness actions...

Boaters should use extreme caution if venturing onto Fort Peck
Lake. For your personal safety, avoid the open waters. Stay close
to shore or around protected areas.